Orleans, Massachusetts
Current Conditions -  °F | °C
As of 1:52 PM on Sunday 23 Nov 2014 (Local Time) from KCQX Reporting Station
Few Clouds Few Clouds  
Wind Chill: 53°   Ceiling: Unl
Heat Index: 53°   Visibility: 10mi
Dew Point: 39°   Wind: 9mph
Humidity: 59%   Direction: 220°SW
Pressure: 30.14"   Gusts: NA
Location:  41.79°N, 69.99°W
Report Text: KCQX 231852Z AUTO 22008KT 10SM FEW090 12/04 A3014 RMK AO2 SLP208 T01170039
Loading
Personal Weather Stations






























Interactive Weather Map New forecast layout! Learn more

10-Day Weather Forecast

Advertisements
Track Severe Weather on mobile